createdAt,value
2023-08-26T00:02:17.448Z,84.80
2023-08-26T00:05:19.541Z,84.60
2023-08-26T00:08:21.622Z,84.40
2023-08-26T00:11:23.743Z,84.10
2023-08-26T00:14:25.790Z,84.00
2023-08-26T00:17:28.029Z,83.90
2023-08-26T00:20:30.696Z,83.40
2023-08-26T00:23:32.744Z,83.50
2023-08-26T00:26:35.566Z,83.30
2023-08-26T00:29:37.712Z,82.70
2023-08-26T00:32:39.850Z,82.70
2023-08-26T00:35:41.951Z,82.60
2023-08-26T00:38:44.259Z,82.60
2023-08-26T00:41:46.327Z,82.90
2023-08-26T00:44:48.372Z,83.80
2023-08-26T00:47:50.601Z,84.00
2023-08-26T00:50:55.228Z,84.40
2023-08-26T00:53:57.637Z,85.10
2023-08-26T00:57:00.097Z,85.30
2023-08-26T01:00:03.254Z,85.90
2023-08-26T01:03:05.566Z,86.10
2023-08-26T01:06:07.782Z,86.50
2023-08-26T01:09:09.958Z,86.90
2023-08-26T01:12:19.498Z,87.40
2023-08-26T01:15:22.443Z,87.20
2023-08-26T01:18:25.441Z,87.80
2023-08-26T01:21:37.601Z,88.00
2023-08-26T01:24:41.088Z,87.70
2023-08-26T01:27:43.203Z,88.00
2023-08-26T01:30:45.519Z,88.20
2023-08-26T01:33:58.802Z,88.90
2023-08-26T01:37:04.067Z,89.30
2023-08-26T01:40:10.128Z,89.50
2023-08-26T01:43:12.896Z,89.40
2023-08-26T01:46:17.908Z,89.50
2023-08-26T01:49:20.102Z,89.90
2023-08-26T01:52:22.243Z,90.30
2023-08-26T01:55:24.373Z,90.30
2023-08-26T01:58:26.612Z,90.30
2023-08-26T02:01:28.790Z,90.50
2023-08-26T02:04:30.877Z,90.60
2023-08-26T02:07:32.909Z,90.60
2023-08-26T02:10:35.201Z,90.60
2023-08-26T02:13:37.979Z,90.90
2023-08-26T02:16:40.192Z,91.10
2023-08-26T02:19:42.439Z,91.30
2023-08-26T02:22:44.582Z,91.30
2023-08-26T02:25:47.596Z,91.40
2023-08-26T02:28:49.709Z,91.40
2023-08-26T02:31:51.783Z,91.20
2023-08-26T02:34:53.909Z,91.10
2023-08-26T02:37:56.149Z,91.50
2023-08-26T02:40:58.982Z,91.80
2023-08-26T02:44:02.302Z,91.70
2023-08-26T02:47:04.527Z,91.90
2023-08-26T02:50:07.233Z,92.00
2023-08-26T02:53:10.219Z,92.10
2023-08-26T02:56:12.258Z,92.30
2023-08-26T02:59:14.328Z,92.50
2023-08-26T03:02:17.097Z,92.80
2023-08-26T03:05:19.228Z,93.30
2023-08-26T03:08:21.277Z,93.20
2023-08-26T03:11:23.628Z,93.20
2023-08-26T03:14:26.067Z,93.20
2023-08-26T03:17:28.514Z,93.30
2023-08-26T03:20:31.373Z,93.30
2023-08-26T03:23:34.090Z,93.40
2023-08-26T03:26:36.131Z,93.30
2023-08-26T03:29:38.245Z,93.70
2023-08-26T03:32:40.532Z,93.90
2023-08-26T03:35:43.014Z,93.90
2023-08-26T03:38:45.077Z,93.70
2023-08-26T03:41:47.200Z,93.60
2023-08-26T03:44:49.235Z,93.80
2023-08-26T03:47:51.284Z,93.80
2023-08-26T03:50:58.619Z,93.90
2023-08-26T03:54:00.760Z,94.00
2023-08-26T03:57:03.693Z,94.00
2023-08-26T04:00:06.331Z,94.10
2023-08-26T04:03:08.784Z,94.40
2023-08-26T04:06:10.871Z,94.00
2023-08-26T04:09:13.816Z,93.90
2023-08-26T04:12:15.883Z,93.70
2023-08-26T04:15:27.512Z,93.90
2023-08-26T04:18:32.476Z,94.10
2023-08-26T04:21:34.662Z,94.60
2023-08-26T04:24:36.868Z,94.60
2023-08-26T04:27:39.178Z,94.70
2023-08-26T04:30:42.134Z,94.60
2023-08-26T04:33:45.128Z,94.40
2023-08-26T04:36:47.191Z,94.20
2023-08-26T04:39:50.146Z,94.10
2023-08-26T04:42:52.568Z,94.00
2023-08-26T04:45:56.498Z,94.30
2023-08-26T04:48:58.746Z,94.30
2023-08-26T04:52:01.263Z,94.20
2023-08-26T04:55:05.448Z,94.10
2023-08-26T04:58:10.220Z,94.10
2023-08-26T05:01:12.423Z,94.00
2023-08-26T05:04:14.536Z,94.00
2023-08-26T05:07:16.702Z,94.00
2023-08-26T05:10:18.875Z,94.10
2023-08-26T05:13:21.187Z,94.00
2023-08-26T05:16:23.343Z,94.00
2023-08-26T05:19:25.441Z,94.30
2023-08-26T05:22:27.783Z,94.40
2023-08-26T05:25:29.973Z,94.50
2023-08-26T05:28:32.035Z,94.60
2023-08-26T05:31:34.233Z,94.30
2023-08-26T05:34:37.315Z,94.30
2023-08-26T05:37:44.746Z,94.10
2023-08-26T05:40:46.844Z,94.20
2023-08-26T05:43:49.434Z,94.10
2023-08-26T05:46:51.708Z,94.00
2023-08-26T05:49:53.861Z,93.70
2023-08-26T05:52:57.271Z,93.80
2023-08-26T05:56:00.042Z,93.90
2023-08-26T05:59:02.132Z,94.00
2023-08-26T06:02:04.324Z,93.80
2023-08-26T06:05:06.874Z,93.90
2023-08-26T06:08:08.977Z,94.00
2023-08-26T06:11:11.063Z,94.00
2023-08-26T06:14:13.146Z,93.90
2023-08-26T06:17:15.320Z,93.90
2023-08-26T06:20:17.509Z,93.90
2023-08-26T06:23:20.300Z,93.90
2023-08-26T06:26:22.392Z,93.80
2023-08-26T06:29:25.619Z,93.90
2023-08-26T06:32:27.805Z,93.90
2023-08-26T06:35:30.091Z,93.80
2023-08-26T06:38:32.393Z,93.60
2023-08-26T06:41:34.830Z,93.60
2023-08-26T06:44:36.949Z,93.70
2023-08-26T06:47:40.476Z,93.50
2023-08-26T06:50:43.168Z,93.50
2023-08-26T06:53:45.186Z,93.40
2023-08-26T06:56:47.239Z,93.20
2023-08-26T06:59:49.342Z,93.00
2023-08-26T07:02:51.520Z,92.80
2023-08-26T07:05:53.833Z,92.80
2023-08-26T07:08:57.325Z,92.80
2023-08-26T07:12:01.262Z,92.80
2023-08-26T07:15:05.622Z,92.50
2023-08-26T07:18:08.025Z,92.30
2023-08-26T07:21:10.268Z,92.30
2023-08-26T07:24:12.824Z,92.60
2023-08-26T07:27:15.031Z,92.40
2023-08-26T07:30:17.875Z,92.20
2023-08-26T07:33:20.223Z,92.10
2023-08-26T07:36:22.360Z,91.90
2023-08-26T07:39:25.642Z,91.50
2023-08-26T07:42:28.715Z,91.30
2023-08-26T07:45:30.814Z,90.70
2023-08-26T07:51:38.275Z,90.30
2023-08-26T07:54:40.360Z,90.40
2023-08-26T07:57:43.119Z,90.10
2023-08-26T08:00:46.347Z,86.40
2023-08-26T08:03:48.890Z,85.70
2023-08-26T08:06:51.069Z,83.70
2023-08-26T08:09:54.626Z,82.10
2023-08-26T08:12:57.167Z,82.10
2023-08-26T08:15:59.592Z,80.60
2023-08-26T08:19:01.762Z,81.10
2023-08-26T08:22:04.007Z,81.30
2023-08-26T08:25:07.388Z,81.30
2023-08-26T08:28:09.578Z,78.90
2023-08-26T08:31:11.785Z,73.10
2023-08-26T08:34:14.443Z,69.70
2023-08-26T08:37:16.774Z,68.50
2023-08-26T08:40:23.093Z,67.50
2023-08-26T08:43:28.641Z,66.00
2023-08-26T08:46:31.269Z,62.30
2023-08-26T08:49:35.309Z,61.50
2023-08-26T08:52:40.402Z,59.50
2023-08-26T08:55:42.633Z,57.20
2023-08-26T08:58:52.440Z,54.50
2023-08-26T09:01:56.852Z,53.20
2023-08-26T09:04:59.772Z,50.70
2023-08-26T09:08:03.884Z,47.90
2023-08-26T09:11:06.678Z,48.10
2023-08-26T09:14:08.887Z,47.70
2023-08-26T09:17:18.922Z,45.90
2023-08-26T09:20:21.111Z,43.60
2023-08-26T09:23:23.365Z,44.10
2023-08-26T09:26:28.394Z,44.60
2023-08-26T09:29:32.726Z,47.00
2023-08-26T09:32:36.774Z,46.60
2023-08-26T09:38:54.500Z,43.60
2023-08-26T09:41:58.359Z,43.60
2023-08-26T09:45:00.495Z,45.70
2023-08-26T09:48:02.744Z,45.90
2023-08-26T09:51:09.029Z,45.30
2023-08-26T09:54:11.499Z,44.90
2023-08-26T09:57:13.664Z,45.20
2023-08-26T10:00:18.216Z,43.30
2023-08-26T10:03:34.385Z,41.80
2023-08-26T10:06:59.946Z,40.80
2023-08-26T10:10:08.441Z,40.40
2023-08-26T10:13:10.728Z,40.60
2023-08-26T10:16:23.012Z,39.50
2023-08-26T10:19:31.090Z,40.30
2023-08-26T10:22:33.959Z,40.40
2023-08-26T10:25:36.425Z,39.10
2023-08-26T10:28:39.144Z,40.40
2023-08-26T10:31:43.828Z,40.60
2023-08-26T10:34:59.565Z,41.20
2023-08-26T10:38:15.615Z,40.10
2023-08-26T10:41:17.909Z,40.20
2023-08-26T10:44:32.037Z,40.00
2023-08-26T10:47:42.076Z,39.80
2023-08-26T10:50:58.464Z,40.40
2023-08-26T10:54:04.812Z,41.80
2023-08-26T10:57:08.634Z,43.30
2023-08-26T11:00:11.463Z,44.00
2023-08-26T11:03:15.814Z,43.50
2023-08-26T11:06:40.537Z,43.50
2023-08-26T11:09:42.790Z,44.20
2023-08-26T11:12:48.298Z,46.60
2023-08-26T11:15:53.880Z,44.60
2023-08-26T11:18:58.352Z,45.60
2023-08-26T11:22:10.036Z,46.50
2023-08-26T11:25:21.926Z,45.80
2023-08-26T11:28:26.284Z,47.50
2023-08-26T11:31:30.178Z,48.50
2023-08-26T11:34:32.669Z,48.30
2023-08-26T11:37:45.101Z,47.00
2023-08-26T11:40:49.109Z,47.50
2023-08-26T11:43:51.197Z,47.80
2023-08-26T11:46:56.986Z,48.40
2023-08-26T11:49:59.246Z,48.50
2023-08-26T11:53:06.178Z,49.80
2023-08-26T11:56:08.656Z,49.80
2023-08-26T11:59:21.116Z,51.40
2023-08-26T12:02:25.972Z,51.40
2023-08-26T12:05:28.265Z,52.00
2023-08-26T12:08:30.327Z,52.20
2023-08-26T12:11:39.477Z,52.00
2023-08-26T12:14:41.892Z,51.40
2023-08-26T12:17:47.797Z,53.40
2023-08-26T12:20:51.309Z,53.80
2023-08-26T12:23:53.366Z,53.00
2023-08-26T12:26:55.804Z,55.00
2023-08-26T12:29:57.910Z,55.90
2023-08-26T12:33:00.021Z,54.80
2023-08-26T12:36:02.207Z,56.40
2023-08-26T12:39:04.654Z,56.50
2023-08-26T12:42:06.787Z,56.30
2023-08-26T12:45:10.476Z,56.50
2023-08-26T12:48:15.156Z,55.30
2023-08-26T12:51:19.496Z,54.90
2023-08-26T12:54:21.544Z,56.10
2023-08-26T12:57:23.683Z,58.70
2023-08-26T13:00:25.862Z,57.50
2023-08-26T13:03:28.163Z,57.60
2023-08-26T13:06:30.894Z,57.90
2023-08-26T13:09:33.033Z,58.20
2023-08-26T13:12:35.532Z,56.60
2023-08-26T13:15:43.739Z,56.80
2023-08-26T13:18:45.945Z,57.00
2023-08-26T13:21:50.620Z,56.80
2023-08-26T13:24:52.854Z,56.40
2023-08-26T13:27:55.150Z,55.90
2023-08-26T13:30:57.850Z,56.50
2023-08-26T13:33:59.993Z,57.30
2023-08-26T13:37:02.180Z,56.30
2023-08-26T13:40:04.631Z,55.30
2023-08-26T13:43:06.698Z,54.80
2023-08-26T13:46:08.828Z,55.20
2023-08-26T13:49:10.920Z,55.50
2023-08-26T13:52:14.173Z,55.60
2023-08-26T13:55:16.380Z,56.10
2023-08-26T13:58:22.844Z,55.60
2023-08-26T14:01:25.310Z,55.10
2023-08-26T14:04:27.570Z,54.60
2023-08-26T14:07:29.680Z,55.60
2023-08-26T14:10:31.817Z,55.20
2023-08-26T14:13:33.944Z,55.40
2023-08-26T14:16:36.322Z,56.20
2023-08-26T14:19:39.399Z,55.70
2023-08-26T14:22:41.481Z,56.90
2023-08-26T14:25:44.246Z,57.40
2023-08-26T14:28:46.353Z,56.90
2023-08-26T14:31:48.390Z,56.50
2023-08-26T14:34:50.445Z,56.10
2023-08-26T14:37:54.033Z,56.80
2023-08-26T14:40:56.368Z,57.10
2023-08-26T14:43:58.466Z,56.90
2023-08-26T14:47:00.884Z,56.70
2023-08-26T14:50:03.156Z,57.20
2023-08-26T14:53:08.004Z,57.90
2023-08-26T14:56:10.363Z,56.90
2023-08-26T14:59:12.407Z,58.10
2023-08-26T15:02:17.264Z,57.30
2023-08-26T15:05:19.416Z,57.20
2023-08-26T15:08:21.538Z,56.90
2023-08-26T15:11:23.631Z,58.30
2023-08-26T15:14:25.753Z,59.30
2023-08-26T15:17:27.899Z,59.40
2023-08-26T15:20:29.994Z,58.90
2023-08-26T15:23:32.145Z,58.80
2023-08-26T15:26:34.245Z,58.10
2023-08-26T15:29:36.263Z,58.60
2023-08-26T15:32:38.466Z,58.30
2023-08-26T15:35:41.748Z,58.40
2023-08-26T15:38:43.928Z,58.50
2023-08-26T15:41:46.052Z,58.10
2023-08-26T15:44:48.181Z,58.10
2023-08-26T15:47:51.473Z,58.20
2023-08-26T15:50:53.911Z,58.10
2023-08-26T15:53:56.076Z,59.10
2023-08-26T15:56:58.206Z,59.00
2023-08-26T16:00:00.273Z,59.10
2023-08-26T16:03:02.709Z,60.30
2023-08-26T16:06:10.868Z,60.60
2023-08-26T16:09:13.645Z,60.30
2023-08-26T16:12:17.873Z,60.30
2023-08-26T16:15:20.110Z,60.40
2023-08-26T16:18:23.258Z,61.20
2023-08-26T16:21:25.808Z,62.20
2023-08-26T16:24:27.872Z,62.70
2023-08-26T16:27:30.015Z,63.40
2023-08-26T16:30:32.067Z,62.40
2023-08-26T16:33:34.191Z,63.20
2023-08-26T16:36:36.317Z,62.50
2023-08-26T16:39:38.483Z,61.60
2023-08-26T16:42:40.632Z,62.50
2023-08-26T16:45:42.749Z,62.60
2023-08-26T16:48:45.067Z,63.10
2023-08-26T16:51:47.161Z,62.10
2023-08-26T16:54:50.244Z,63.10
2023-08-26T16:57:52.488Z,63.40
2023-08-26T17:00:54.786Z,63.60
2023-08-26T17:03:57.816Z,64.70
2023-08-26T17:07:01.253Z,65.20
2023-08-26T17:10:03.492Z,64.90
2023-08-26T17:13:05.713Z,65.10
2023-08-26T17:16:08.629Z,66.40
2023-08-26T17:19:11.446Z,67.40
2023-08-26T17:22:13.562Z,68.40
2023-08-26T17:25:15.690Z,68.80
2023-08-26T17:28:18.832Z,67.80
2023-08-26T17:31:21.032Z,68.60
2023-08-26T17:34:23.211Z,70.20
2023-08-26T17:37:25.501Z,70.60
2023-08-26T17:40:27.705Z,70.10
2023-08-26T17:43:31.890Z,70.50
2023-08-26T17:46:34.138Z,71.90
2023-08-26T17:49:36.501Z,71.70
2023-08-26T17:52:38.638Z,73.30
2023-08-26T17:55:40.845Z,73.20
2023-08-26T17:58:43.862Z,73.30
2023-08-26T18:01:46.022Z,72.60
2023-08-26T18:04:49.128Z,71.50
2023-08-26T18:07:52.196Z,70.40
2023-08-26T18:10:54.309Z,71.50
2023-08-26T18:13:56.441Z,72.00
2023-08-26T18:16:58.585Z,72.30
2023-08-26T18:20:01.189Z,71.40
2023-08-26T18:23:04.546Z,71.20
2023-08-26T18:26:06.660Z,71.20
2023-08-26T18:29:08.859Z,71.00
2023-08-26T18:32:12.523Z,71.30
2023-08-26T18:35:15.091Z,71.40
2023-08-26T18:38:22.759Z,72.30
2023-08-26T18:41:24.880Z,73.10
2023-08-26T18:44:26.897Z,74.70
2023-08-26T18:47:29.074Z,75.70
2023-08-26T18:50:31.194Z,76.30
2023-08-26T18:53:33.730Z,77.40
2023-08-26T18:56:35.896Z,78.20
2023-08-26T18:59:38.018Z,79.00
2023-08-26T19:02:40.297Z,79.60
2023-08-26T19:05:45.749Z,79.80
2023-08-26T19:08:47.908Z,80.30
2023-08-26T19:11:50.092Z,80.70
2023-08-26T19:14:52.285Z,81.20
2023-08-26T19:17:55.235Z,82.20
2023-08-26T19:20:57.330Z,82.30
2023-08-26T19:24:00.202Z,82.70
2023-08-26T19:27:03.146Z,82.70
2023-08-26T19:30:06.245Z,83.20
2023-08-26T19:33:08.700Z,83.20
2023-08-26T19:36:11.004Z,83.00
2023-08-26T19:39:13.778Z,83.00
2023-08-26T19:42:15.865Z,82.50
2023-08-26T19:45:19.650Z,82.50
2023-08-26T19:48:21.775Z,82.30
2023-08-26T19:51:25.608Z,82.20
2023-08-26T19:54:27.746Z,82.20
2023-08-26T19:57:30.602Z,82.50
2023-08-26T20:00:32.849Z,83.10
2023-08-26T20:03:35.035Z,83.60
2023-08-26T20:06:37.172Z,83.80
2023-08-26T20:09:39.274Z,84.40
2023-08-26T20:12:41.449Z,84.80
2023-08-26T20:15:43.554Z,85.40
2023-08-26T20:18:45.673Z,86.10
2023-08-26T20:21:51.077Z,86.20
2023-08-26T20:24:58.640Z,86.50
2023-08-26T20:28:00.755Z,86.50
2023-08-26T20:31:05.979Z,86.80
2023-08-26T20:34:08.199Z,87.50
2023-08-26T20:37:11.512Z,87.70
2023-08-26T20:40:13.623Z,88.30
2023-08-26T20:43:15.750Z,88.80
2023-08-26T20:46:17.905Z,89.00
2023-08-26T20:49:20.309Z,89.60
2023-08-26T20:52:22.442Z,90.00
2023-08-26T20:55:24.704Z,90.00
2023-08-26T20:58:26.823Z,90.10
2023-08-26T21:01:29.049Z,90.00
2023-08-26T21:04:31.117Z,90.20
2023-08-26T21:07:33.229Z,90.40
2023-08-26T21:10:35.320Z,90.70
2023-08-26T21:13:39.760Z,91.00
2023-08-26T21:16:41.954Z,91.10
2023-08-26T21:19:44.172Z,91.40
2023-08-26T21:22:46.351Z,91.70
2023-08-26T21:25:55.530Z,92.00
2023-08-26T21:28:57.806Z,91.90
2023-08-26T21:31:59.972Z,92.50
2023-08-26T21:35:02.368Z,92.50
2023-08-26T21:38:04.638Z,92.40
2023-08-26T21:41:07.204Z,92.90
2023-08-26T21:44:09.272Z,92.50
2023-08-26T21:47:11.409Z,92.70
2023-08-26T21:50:13.790Z,92.90
2023-08-26T21:53:15.954Z,92.70
2023-08-26T21:56:18.348Z,92.80
2023-08-26T21:59:20.586Z,92.90
2023-08-26T22:02:22.887Z,92.90
2023-08-26T22:05:38.811Z,93.20
2023-08-26T22:08:43.169Z,93.00
2023-08-26T22:11:45.373Z,93.30
2023-08-26T22:14:47.645Z,93.30
2023-08-26T22:17:50.429Z,93.30
2023-08-26T22:20:53.522Z,93.50
2023-08-26T22:23:55.703Z,93.60
2023-08-26T22:26:57.763Z,93.40
2023-08-26T22:29:59.946Z,93.60
2023-08-26T22:33:02.581Z,93.90
2023-08-26T22:36:05.134Z,94.00
2023-08-26T22:39:18.828Z,94.20
2023-08-26T22:42:22.315Z,94.20
2023-08-26T22:45:24.441Z,94.20
2023-08-26T22:48:26.608Z,94.30
2023-08-26T22:51:28.726Z,94.40
2023-08-26T22:54:30.801Z,94.40
2023-08-26T22:57:32.933Z,94.40
2023-08-26T23:00:35.489Z,94.40
2023-08-26T23:03:37.619Z,94.30
2023-08-26T23:06:41.153Z,94.40
2023-08-26T23:09:43.594Z,94.40
2023-08-26T23:12:46.270Z,94.40
2023-08-26T23:15:48.691Z,94.30
2023-08-26T23:18:50.961Z,94.10
2023-08-26T23:21:54.584Z,94.00
2023-08-26T23:24:56.972Z,94.40
2023-08-26T23:27:59.031Z,94.00
2023-08-26T23:31:05.080Z,94.00
2023-08-26T23:34:17.883Z,94.20
2023-08-26T23:37:20.991Z,94.60
2023-08-26T23:40:23.078Z,94.40
2023-08-26T23:43:25.755Z,94.40
2023-08-26T23:46:27.868Z,94.50
2023-08-26T23:49:29.943Z,94.50
2023-08-26T23:52:32.102Z,94.40
2023-08-26T23:55:34.137Z,94.60
2023-08-26T23:58:36.279Z,94.50
